Time;durP1;ratioP1;P1;durP2;ratioP2;P2;SDS_P1;SDS_P2;PMS_P1;PMS_P2;Temp;Humidity;BMP_temperature;BMP_pressure;BME280_temperature;BME280_humidity;BME280_pressure;Samples;Min_cycle;Max_cycle;Signal;HPM_P1;HPM_P2
2023/07/30 20:28:34;;;;;;;7.70;5.10;;;;;;;18.10;84.83;99856.14;101589;307;545350;-77
2023/07/30 20:31:09;;;;;;;6.90;4.70;;;;;;;18.09;84.97;99856.61;103271;285;38642;-77
2023/07/30 20:33:43;;;;;;;5.90;4.60;;;;;;;18.10;85.39;99854.20;103297;285;38692;-74
2023/07/30 20:36:18;;;;;;;7.20;4.30;;;;;;;18.14;85.45;99863.48;103266;285;39397;-78
2023/07/30 20:38:52;;;;;;;4.70;4.10;;;;;;;18.17;85.33;99863.16;103213;286;38453;-77
2023/07/30 20:41:26;;;;;;;4.80;4.40;;;;;;;18.23;85.30;99867.33;102747;284;662443;-75
2023/07/30 20:44:01;;;;;;;6.40;4.40;;;;;;;18.29;85.13;99869.98;103594;281;38665;-75
2023/07/30 20:46:36;;;;;;;5.30;4.10;;;;;;;18.37;84.65;99872.06;103575;281;38235;-75
2023/07/30 20:49:10;;;;;;;5.30;4.60;;;;;;;18.43;84.44;99873.13;103584;269;39693;-76
2023/07/30 20:51:47;;;;;;;4.60;4.20;;;;;;;18.52;84.12;99881.13;103671;280;38381;-73
2023/07/30 20:54:21;;;;;;;5.10;4.20;;;;;;;18.60;83.66;99874.84;103718;280;38327;-74
2023/07/30 20:56:56;;;;;;;5.40;4.30;;;;;;;18.68;83.23;99877.43;103546;280;39445;-76
2023/07/30 21:01:29;;;;;;;5.40;4.00;;;;;;;18.80;82.65;99870.27;101660;306;546709;-74
2023/07/30 21:04:03;;;;;;;6.00;4.90;;;;;;;18.85;82.18;99867.73;103284;285;38496;-75
2023/07/30 21:06:38;;;;;;;8.80;5.10;;;;;;;18.93;81.75;99871.37;103256;285;38362;-75
2023/07/30 21:09:22;;;;;;;5.40;4.30;;;;;;;18.98;81.38;99870.70;103240;284;38238;-77
2023/07/30 21:12:42;;;;;;;4.80;4.30;;;;;;;19.08;81.01;99867.79;101687;307;545304;-75
2023/07/30 21:15:17;;;;;;;7.30;4.40;;;;;;;19.11;80.66;99866.30;103319;284;38703;-73
2023/07/30 21:17:53;;;;;;;7.50;4.40;;;;;;;19.15;80.39;99867.97;103324;284;38242;-73
2023/07/30 21:20:27;;;;;;;5.10;4.30;;;;;;;19.18;80.23;99868.23;103231;284;171907;-72
2023/07/30 21:23:01;;;;;;;4.30;3.90;;;;;;;19.21;80.01;99869.55;103379;284;39869;-75
2023/07/30 21:25:35;;;;;;;4.40;4.00;;;;;;;19.23;79.69;99870.33;102796;283;668363;-75
2023/07/30 21:28:09;;;;;;;4.60;4.20;;;;;;;19.22;79.45;99871.07;103416;283;39854;-73
2023/07/30 21:30:44;;;;;;;4.60;3.90;;;;;;;19.21;79.40;99870.98;103452;282;38565;-73
2023/07/30 21:33:24;;;;;;;4.90;4.40;;;;;;;19.21;79.50;99870.14;103310;282;174908;-73
2023/07/30 21:35:58;;;;;;;4.50;4.20;;;;;;;19.20;79.33;99869.29;103414;283;39946;-74
2023/07/30 21:38:39;;;;;;;4.80;4.00;;;;;;;19.20;79.30;99868.97;103458;283;38449;-73
2023/07/30 21:41:22;;;;;;;4.70;4.20;;;;;;;19.20;79.30;99863.99;103506;282;38438;-75
2023/07/30 21:43:57;;;;;;;5.80;4.30;;;;;;;19.19;79.36;99868.13;103699;279;38269;-74
2023/07/30 21:46:33;;;;;;;5.00;4.40;;;;;;;19.20;79.40;99868.61;103688;271;38293;-73
2023/07/30 21:49:10;;;;;;;6.90;4.20;;;;;;;19.22;79.46;99868.30;103695;279;39476;-73
2023/07/30 21:51:50;;;;;;;4.00;3.70;;;;;;;19.22;79.41;99867.59;103773;280;39491;-75
2023/07/30 21:54:26;;;;;;;4.30;3.80;;;;;;;19.23;79.41;99867.14;103787;280;38444;-75
2023/07/30 21:57:00;;;;;;;4.00;3.60;;;;;;;19.22;79.32;99866.13;103899;279;38477;-75
2023/07/30 21:59:35;;;;;;;4.00;3.60;;;;;;;19.21;79.22;99861.83;103863;279;38251;-75
2023/07/30 22:02:10;;;;;;;4.50;4.00;;;;;;;19.23;79.42;99864.16;103865;279;38336;-75
2023/07/30 22:04:44;;;;;;;4.10;3.30;;;;;;;19.24;79.51;99867.05;103802;280;38770;-75
2023/07/30 22:07:19;;;;;;;4.20;3.70;;;;;;;19.26;79.55;99862.45;103734;280;39436;-73
2023/07/30 22:09:54;;;;;;;4.30;3.20;;;;;;;19.27;79.51;99860.59;103698;280;38298;-73
2023/07/30 22:12:29;;;;;;;3.90;3.50;;;;;;;19.27;79.52;99856.69;103732;279;39630;-73
2023/07/30 22:15:03;;;;;;;4.30;3.60;;;;;;;19.27;79.44;99858.67;103960;277;38362;-73
2023/07/30 22:17:38;;;;;;;5.70;3.60;;;;;;;19.25;79.32;99857.59;103943;277;38248;-76
2023/07/30 22:22:46;;;;;;;3.80;3.40;;;;;;;19.26;79.53;99856.64;101997;289;546257;-73
2023/07/30 22:25:25;;;;;;;7.30;4.10;;;;;;;19.21;79.31;99855.98;103476;281;38518;-73
2023/07/30 22:28:02;;;;;;;4.90;4.40;;;;;;;19.17;79.29;99859.46;103624;281;38231;-75
2023/07/30 22:30:39;;;;;;;4.30;3.80;;;;;;;19.12;79.46;99858.27;103629;281;38299;-72
2023/07/30 22:33:21;;;;;;;4.30;3.20;;;;;;;19.10;79.56;99855.63;103585;281;38474;-74
2023/07/30 22:36:00;;;;;;;4.30;3.90;;;;;;;19.10;79.53;99857.96;103161;279;749222;-73
2023/07/30 22:38:36;;;;;;;4.60;3.10;;;;;;;19.11;79.67;99859.29;103789;279;38235;-74
2023/07/30 22:41:10;;;;;;;3.30;3.00;;;;;;;19.11;79.56;99860.85;103770;279;38275;-74
2023/07/30 22:43:44;;;;;;;5.20;3.40;;;;;;;19.12;79.49;99860.63;103799;279;38415;-73
2023/07/30 22:46:18;;;;;;;4.10;2.70;;;;;;;19.13;79.56;99862.98;103863;279;38557;-73
2023/07/30 22:48:52;;;;;;;3.30;2.80;;;;;;;19.15;79.37;99866.73;103797;279;38474;-73
2023/07/30 22:51:27;;;;;;;6.50;3.40;;;;;;;19.13;79.19;99869.36;103840;279;39263;-73
2023/07/30 22:54:02;;;;;;;3.50;3.00;;;;;;;19.09;79.33;99864.00;103701;279;38278;-74
2023/07/30 22:56:36;;;;;;;3.80;2.90;;;;;;;19.05;79.21;99862.23;103861;279;39609;-73
2023/07/30 22:59:10;;;;;;;3.50;3.20;;;;;;;19.04;79.21;99866.92;103811;279;38638;-73
2023/07/30 23:01:46;;;;;;;3.20;2.90;;;;;;;19.01;79.04;99861.27;103859;279;38562;-73
2023/07/30 23:04:20;;;;;;;5.20;2.90;;;;;;;18.97;79.01;99866.05;103672;279;38830;-72
2023/07/30 23:06:54;;;;;;;5.60;3.00;;;;;;;18.95;79.03;99863.55;103191;279;898526;-74
2023/07/30 23:09:28;;;;;;;5.10;3.00;;;;;;;18.93;79.02;99866.41;103750;279;39888;-72
2023/07/30 23:12:02;;;;;;;3.80;2.80;;;;;;;18.89;78.97;99867.75;103828;279;39389;-72
2023/07/30 23:14:36;;;;;;;4.10;2.50;;;;;;;18.88;79.18;99863.09;103803;279;38128;-73
2023/07/30 23:17:10;;;;;;;3.30;2.70;;;;;;;18.84;79.09;99864.96;103834;279;39267;-73
2023/07/30 23:19:44;;;;;;;4.20;2.80;;;;;;;18.80;78.96;99865.71;103701;268;39448;-73
2023/07/30 23:22:18;;;;;;;2.80;2.40;;;;;;;18.74;79.10;99867.96;103836;279;39475;-72
2023/07/30 23:24:52;;;;;;;2.30;2.10;;;;;;;18.68;79.12;99864.85;103810;279;39473;-74
2023/07/30 23:27:28;;;;;;;3.30;2.40;;;;;;;18.62;79.11;99860.59;103841;279;39689;-72
2023/07/30 23:30:03;;;;;;;3.60;2.40;;;;;;;18.56;79.39;99861.36;103826;279;38375;-73
2023/07/30 23:32:37;;;;;;;2.40;2.20;;;;;;;18.51;79.38;99861.95;103723;279;174649;-75
2023/07/30 23:35:15;;;;;;;3.50;2.30;;;;;;;18.46;79.47;99860.20;103599;279;174557;-75
2023/07/30 23:37:49;;;;;;;2.80;2.30;;;;;;;18.42;79.59;99864.04;103729;279;39153;-73
2023/07/30 23:40:24;;;;;;;2.90;2.60;;;;;;;18.39;79.74;99867.17;103693;279;38398;-74
2023/07/30 23:42:58;;;;;;;5.50;2.50;;;;;;;18.34;79.96;99870.56;103668;279;38588;-74
2023/07/30 23:45:32;;;;;;;2.60;2.30;;;;;;;18.29;80.03;99873.52;103748;279;38361;-72
2023/07/30 23:48:06;;;;;;;3.50;2.10;;;;;;;18.24;80.18;99868.27;103733;279;39970;-73
2023/07/30 23:50:41;;;;;;;2.90;2.10;;;;;;;18.20;80.27;99868.45;103705;279;39396;-74
2023/07/30 23:53:15;;;;;;;3.00;2.60;;;;;;;18.15;80.30;99864.27;103754;279;40415;-73
2023/07/30 23:59:13;;;;;;;2.30;2.10;;;;;;;18.03;80.62;99857.75;103751;279;38296;-76
